Loznica, Serbia
Current Conditions -  °F | °C
As of 3:30 PM on Tuesday 21 Oct 2014 (Local Time) from LQTZ Reporting Station
Scattered Clouds Scattered Clouds  
Wind Chill: 68°   Ceiling: Unl
Heat Index: 68°   Visibility: 6mi
Dew Point: 59°   Wind: 2mph
Humidity: 73%   Direction: NA
Pressure: 29.88"   Gusts: NA
Location:  44.53°N, 19.22°E
Report Text: LQTZ 211330Z VRB02KT 9999 SCT050 20/15 Q1012
Loading
Personal Weather Stations






























Interactive Weather Map New forecast layout! Learn more

10-Day Weather Forecast

Advertisements
Track Severe Weather on mobile